Pedro Ibañez

Olheiro-Chefe - Gijón
19 Mai 2028
Sexta-feira
Processo

Personalidade

Adaptabilidade (17) Ambição (15) Controvérsia (15) Lealdade (16) Pressão (12) Profissionalismo (17) Espírito Esportivo (12) Temperamento (15)

Perfil

Estilo de Treinamento Democrático
Licença Continental C
Determinação 7
Gestão de Pessoas 9
Motivação 7
Disciplina 8
Satisfação no Trabalho
100%
Fadiga
0%
Função Olheiro-Chefe
Salário 37.9K p/s
Contrato 14.03.2030

Desempenho

Comportamento Bom
Eficácia do Treinamento
48%
Desenvolvimento do Jogador
55%
Prevenção de Lesões
60%
Implementação Tática
60%

Monitorando agora

86
Jogador Clube Status Habilidade Confiança Observado Última observação Último voto
Rodrigo Ely Almería Perdido 115 / 126 65% 1 31.01.2028 Aprovar
Isaiah Dada-Mascoll Cultural Leonesa Ativo 98 / 113 40% 1 31.01.2028 -
Izan Merino Málaga Ativo 136 / 125 40% 1 31.01.2028 -
Jorge Salinas Racing Santander Ativo 129 / 138 40% 1 31.01.2028 -
Agustín Obregón River Plate Negociando 119 / 121 40% 1 24.01.2028 -
Victor Corona Santos Laguna Ativo 118 / 103 40% 1 24.01.2028 -
Amine Boukamir Charleroi Ativo 113 / 107 40% 1 24.01.2028 -
Honest Ahanor Fiorentina Ativo 140 / 146 40% 1 03.01.2028 -
Adrián Parra Udinese Ativo 117 / 117 67% 1 01.01.2028 Aprovar
Donis Avdijaj Getafe Ativo 117 / 117 66% 1 01.01.2028 Aprovar
Danyil Alefirenko Montevideo City Torque Ativo 106 / 106 66% 1 01.01.2028 Aprovar
Khama Mkhize SuperSport United Perdido 112 / 112 66% 1 01.01.2028 Aprovar
John Okoye Ebuka Atlético Mineiro Ativo 117 / 117 68% 1 01.01.2028 Aprovar
Rafael Vargas Cortulua Ativo 88 / 100 40% 1 01.01.2028 -
Agustín Campos All Boys Ativo 84 / 96 40% 2 30.08.2027 -
Afriyie Sulemana Hasaacas Ativo 107 / 113 40% 1 30.08.2027 -
Vadim Arutyunyan Dnepr Mogilev Ativo 83 / 99 40% 1 30.08.2027 -
Jose Rodriguez La Equidad Ativo 91 / 101 40% 1 24.08.2027 -
Marvelous Freedom Ikorodu City Ativo 104 / 94 40% 1 24.08.2027 -
Dilan Villarreal Junior Ativo 91 / 99 40% 1 24.08.2027 -
Mbekezeli Mbokazi Chicago Fire Ativo 129 / 138 40% 2 09.08.2027 -
Mattia Puzone Siracusa Ativo 107 / 105 40% 1 09.08.2027 -
Inti Borghetto Patronato Ativo 88 / 90 40% 1 02.08.2027 -
Ronan Hale Gillingham Ativo 120 / 120 40% 1 20.07.2027 -
García Pascual Cádiz Ativo 124 / 132 40% 1 20.07.2027 -
Mathias Kvistgaarden Norwich City Ativo 128 / 121 40% 1 20.07.2027 -
Dale Taylor Blackpool Ativo 119 / 112 40% 1 05.07.2027 -
Christian Ebere Cruz Azul Ativo 131 / 120 40% 1 05.07.2027 -
Jefry Zapata Once Caldas Ativo 121 / 121 40% 1 05.07.2027 -
Ibrahim Sabiu Bendel Insurance Ativo 92 / 96 40% 2 28.06.2027 -
Andrija Bulatović RC Lens Ativo 132 / 129 40% 2 26.06.2027 -
Jhon Cortez Barranquilla Ativo 83 / 86 40% 1 26.06.2027 -
Enzo Cardozo Huracán Ativo 104 / 109 40% 1 25.06.2027 -
Harley Mills Peterborough United Ativo 98 / 101 40% 1 25.06.2027 -
Mathis Amougou RC Strasbourg Ativo 117 / 120 40% 1 23.06.2027 -
Arjan Malić Sturm Graz Ativo 112 / 131 40% 1 22.06.2027 -
Axel Tape Bayer Leverkusen Ativo 120 / 133 40% 1 22.06.2027 -
Andrej Sestak FK Senica Ativo 97 / 122 40% 1 22.06.2027 -
Fabián Correa Barranquilla Ativo 84 / 89 40% 1 20.06.2027 -
Marius Courcoul Olympique de Marseille Ativo 111 / 116 40% 2 19.06.2027 -
Milan Roganović Partizan Ativo 108 / 105 40% 3 17.06.2027 -
Juan Giménez Athletic Bilbao Ativo 116 / 133 40% 1 16.06.2027 -
Ezra Mayers West Ham United Ativo 120 / 124 40% 1 16.06.2027 -
Alejandro Leiva Beitar Jerusalem Ativo 106 / 101 40% 1 14.06.2027 -
Kazunari Kita Real Sociedad Ativo 108 / 115 40% 1 14.06.2027 -
Sebastián Caballero Barranquilla Ativo 85 / 97 40% 1 11.06.2027 -
Martim Cunha Porto Ativo 100 / 113 40% 1 08.06.2027 -
Facundo Infante Talleres Ativo 83 / 90 40% 1 04.06.2027 -
Denys Smetana Inhulets Ativo 83 / 107 40% 1 01.06.2027 -
Juninho Pumas UNAM Ativo 137 / 136 40% 1 31.01.2027 -
Tiago Freitas Benfica Ativo 114 / 114 40% 1 29.01.2027 -
Ivan M'Bahia Clermont Foot Ativo 112 / 116 40% 2 28.01.2027 -
Elie N'Gatta Sochaux Ativo 104 / 106 40% 4 28.01.2027 -
Duk Atlas Ativo 107 / 118 40% 1 28.01.2027 -
Rodrigo Bogarín Barracas Central Ativo 117 / 116 40% 1 28.01.2027 -
Thiago Martínez Defensa y Justicia Ativo 98 / 108 40% 2 26.01.2027 -
Sergi Domínguez Dinamo Zagreb Ativo 117 / 138 40% 1 26.01.2027 -
Dani Jiménez Huesca Ativo 119 / 114 62% 1 25.01.2027 Aprovar
Chinedu Geoffrey Krylya Sovetov Ativo 107 / 116 40% 1 25.01.2027 Mais informações
Iñigo Córdoba Castellón Ativo 121 / 125 40% 1 25.01.2027 Mais informações
Taras Mykhavko Dynamo Kyiv Ativo 137 / 135 40% 3 24.01.2027 -
Gökdeniz Gürpüz Adana Demirspor Ativo 101 / 94 40% 1 24.01.2027 -
Agustín Fontana Hajduk Split Ativo 109 / 117 40% 1 22.01.2027 -
Santiago Fernández Talleres Ativo 118 / 121 40% 1 20.01.2027 -
Sergi Guardiola Córdoba Ativo 108 / 117 62% 1 18.01.2027 Aprovar
Emirhan Başyiğit Sivasspor Ativo 108 / 107 40% 1 17.01.2027 -
Juan Pablo De la Reta Maipú Ativo 115 / 120 40% 1 17.01.2027 -
Kyriani Sabbe Club Brugge Ativo 115 / 125 40% 1 12.01.2027 -
Alexis Vossah Toulouse FC Ativo 104 / 124 40% 1 12.01.2027 -
Ignacio Perruzzi San Lorenzo Ativo 122 / 121 40% 1 10.01.2027 -
Ismael Díaz Leon Ativo 142 / 139 40% 1 07.01.2027 -
Mourad Tijuana Ativo 131 / 111 40% 1 07.01.2027 -
Breno Bidon Corinthians Ativo 122 / 128 40% 1 05.01.2027 -
Philippe Ndinga Philadelphia Union Ativo 119 / 130 40% 1 04.01.2027 -
José Neto Alverca Ativo 111 / 115 40% 1 02.01.2027 -
Juho Lähteenmäki FC Nordsjaelland Ativo 104 / 123 40% 1 01.01.2027 -
Estanislao López Colón Ativo 92 / 101 40% 1 31.08.2026 Mais informações
Juan Cruz Cortazzo Gimnasia La Plata Ativo 111 / 118 40% 1 24.08.2026 -
Nahuel Herrera Porto Ativo 133 / 123 40% 1 20.08.2026 -
Kevin Contreras Union Espanola Ativo 81 / 95 40% 1 20.08.2026 -
Ignacio Ovando Rosario Central Ativo 101 / 107 40% 1 19.08.2026 -
Mauricio Amaro Atlanta United FC Ativo 105 / 117 40% 1 18.08.2026 -
Ulises Piedrabuena Vélez Ativo 88 / 104 40% 1 18.08.2026 -
Pablo Ferreira Platense Ativo 105 / 107 40% 1 12.08.2026 -
Axel Frugone Defensor Sporting Ativo 115 / 115 40% 1 11.08.2026 -
Thiago Villalba Vélez Ativo 85 / 104 40% 1 11.08.2026 -